JA87 / CC-AWJ 7700 Squawk Report (21st of June, 2021)

Aircraft A20N Reg No. CC-AWJ Age 1 years old
Model A320 Jet engines 2 First flight 17-09-19
Registered 30-09-19 Rollout N/A Delivered 01-10-19
Construction No. 9194 Line No. N/A Series 271N(SL)
ADSHEX E80609 Airline name JetSmart Owner N/A
Airfield based Santiago-A.M. Benitez~Santiago~CC First tracked N/A
Time Lat Lon Altitude Heading Speed Vertical Rate
2021-06-21 20:54:00 GMT -33.378094 -70.786652 1,425 177 140 -704
2021-06-21 20:53:55 GMT -33.374588 -70.786835 1,525 177 140 -704
2021-06-21 20:53:47 GMT -33.369736 -70.787109 1,625 177 139 -704
2021-06-21 20:53:36 GMT -33.362503 -70.787491 1,750 177 139 -704
2021-06-21 20:53:25 GMT -33.354813 -70.787880 1,900 177 139 -768
2021-06-21 20:53:15 GMT -33.349419 -70.788162 2,000 177 138 -768
2021-06-21 20:53:03 GMT -33.341599 -70.788559 2,150 177 138 -704
2021-06-21 20:52:52 GMT -33.334717 -70.788925 2,325 177 138 -704
2021-06-21 20:52:43 GMT -33.328903 -70.789307 2,400 177 139 -768
2021-06-21 20:52:32 GMT -33.321945 -70.789635 2,525 177 141 -704
2021-06-21 20:52:23 GMT -33.315155 -70.789955 2,675 177 142 -768
2021-06-21 20:52:11 GMT -33.307480 -70.790352 2,800 177 144 -704
2021-06-21 20:52:00 GMT -33.300659 -70.790680 2,925 176 146 -768
2021-06-21 20:51:51 GMT -33.293839 -70.791176 3,075 177 148 -768
2021-06-21 20:51:39 GMT -33.286194 -70.791557 3,200 177 154 -832
2021-06-21 20:51:26 GMT -33.275665 -70.792160 3,425 177 162 -896
2021-06-21 20:51:19 GMT -33.270466 -70.792419 3,550 177 166 -960
2021-06-21 20:51:06 GMT -33.261108 -70.792931 3,725 177 171 -960
2021-06-21 20:50:58 GMT -33.253567 -70.793320 3,850 177 173 -896
2021-06-21 20:50:47 GMT -33.244862 -70.793770 4,025 177 174 -960
2021-06-21 20:50:35 GMT -33.236115 -70.794250 4,200 177 176 -1024
2021-06-21 20:50:25 GMT -33.227463 -70.794693 4,375 177 177 -896
2021-06-21 20:50:15 GMT -33.218948 -70.795181 4,550 177 178 -1024
2021-06-21 20:50:04 GMT -33.210114 -70.795677 4,700 177 180 -896
2021-06-21 20:49:53 GMT -33.200871 -70.796181 4,875 177 184 -768
2021-06-21 20:49:43 GMT -33.191849 -70.796616 4,950 177 192 -128
2021-06-21 20:49:31 GMT -33.181690 -70.797188 4,950 177 210 -576
2021-06-21 20:49:21 GMT -33.171112 -70.797653 5,050 177 219 -384
2021-06-21 20:49:11 GMT -33.160492 -70.798203 5,150 177 227 -832
2021-06-21 20:48:59 GMT -33.148865 -70.798538 5,300 179 235 -640
2021-06-21 20:48:49 GMT -33.137184 -70.798363 5,425 182 240 -832
2021-06-21 20:48:39 GMT -33.124943 -70.797913 5,600 179 246 -768
2021-06-21 20:48:27 GMT -33.112652 -70.798592 5,725 176 252 -768
2021-06-21 20:48:17 GMT -33.100479 -70.799576 5,925 175 258 -1856
2021-06-21 20:48:07 GMT -33.087563 -70.800835 6,275 175 260 -1664
2021-06-21 20:47:56 GMT -33.074387 -70.802063 6,525 175 266 -1088
2021-06-21 20:47:45 GMT -33.061020 -70.803040 6,750 177 274 -1792
2021-06-21 20:47:35 GMT -33.047562 -70.803864 7,100 177 276 -1856
2021-06-21 20:47:24 GMT -33.033607 -70.804642 7,425 177 279 -1664
2021-06-21 20:47:12 GMT -33.019638 -70.805405 7,650 177 284 -1024
2021-06-21 20:47:03 GMT -33.005356 -70.806168 7,825 177 288 -1024
2021-06-21 20:46:52 GMT -32.990982 -70.806938 8,050 177 291 -1216
2021-06-21 20:46:40 GMT -32.976746 -70.807762 8,275 177 293 -1344
2021-06-21 20:46:31 GMT -32.962006 -70.808586 8,575 177 295 -1984
2021-06-21 20:46:20 GMT -32.947495 -70.809357 8,950 177 296 -2176
2021-06-21 20:46:08 GMT -32.932961 -70.810020 9,325 178 298 -1984
2021-06-21 20:45:59 GMT -32.918297 -70.810532 9,650 178 302 -1792
2021-06-21 20:45:48 GMT -32.903030 -70.811035 9,950 178 306 -1536
2021-06-21 20:45:37 GMT -32.888130 -70.811592 10,250 178 310 -2048
2021-06-21 20:45:27 GMT -32.872742 -70.812157 10,650 178 311 -2176
2021-06-21 20:45:16 GMT -32.857407 -70.812767 11,025 178 312 -2304
2021-06-21 20:45:05 GMT -32.841999 -70.813278 11,450 178 311 -2368
2021-06-21 20:44:55 GMT -32.826637 -70.813782 11,875 178 311 -2304
2021-06-21 20:44:44 GMT -32.810902 -70.814400 12,275 178 312 -2240
2021-06-21 20:44:32 GMT -32.795563 -70.814957 12,650 178 314 -1920
2021-06-21 20:44:23 GMT -32.779404 -70.815567 12,925 178 321 -960
2021-06-21 20:44:12 GMT -32.763092 -70.816193 13,050 178 329 -640
2021-06-21 20:44:01 GMT -32.747589 -70.816750 13,150 178 336 -576
2021-06-21 20:43:51 GMT -32.731018 -70.817322 13,275 178 344 -704
2021-06-21 20:43:39 GMT -32.712570 -70.817978 13,400 178 351 -768
2021-06-21 20:43:28 GMT -32.696011 -70.818542 13,625 178 355 -1472
2021-06-21 20:43:19 GMT -32.678467 -70.819138 13,875 178 358 -1472
2021-06-21 20:43:08 GMT -32.661026 -70.819794 14,150 178 360 -1728
2021-06-21 20:42:56 GMT -32.642197 -70.820450 14,500 178 361 -2048
2021-06-21 20:42:45 GMT -32.622253 -70.821220 14,925 178 360 -2176
2021-06-21 20:42:35 GMT -32.606094 -70.821884 15,300 178 357 -2304
2021-06-21 20:42:24 GMT -32.589172 -70.822525 15,700 178 355 -2240
2021-06-21 20:42:14 GMT -32.571579 -70.823196 16,075 178 354 -2112
2021-06-21 20:42:04 GMT -32.554817 -70.823814 16,425 178 353 -2304
2021-06-21 20:41:52 GMT -32.536377 -70.824570 16,875 178 350 -2304
2021-06-21 20:41:42 GMT -32.518845 -70.825233 17,300 178 348 -2240
2021-06-21 20:41:32 GMT -32.503098 -70.825783 17,625 178 349 -1856
2021-06-21 20:41:20 GMT -32.484383 -70.826447 17,950 178 351 -1728
2021-06-21 20:41:10 GMT -32.467579 -70.827011 18,275 178 351 -2048
2021-06-21 20:41:00 GMT -32.450958 -70.827591 18,600 178 353 -1664
2021-06-21 20:40:49 GMT -32.433289 -70.828201 18,900 178 355 -1792
2021-06-21 20:40:37 GMT -32.414200 -70.828857 19,300 178 356 -2240
2021-06-21 20:40:28 GMT -32.397766 -70.829460 19,675 178 355 -2240
2021-06-21 20:40:17 GMT -32.380108 -70.830093 20,000 178 356 -1408
2021-06-21 20:40:06 GMT -32.362335 -70.830780 20,325 178 358 -2176
2021-06-21 20:39:55 GMT -32.344540 -70.831490 20,725 177 357 -2176
2021-06-21 20:39:45 GMT -32.326675 -70.832321 21,125 177 357 -2112
2021-06-21 20:39:34 GMT -32.309280 -70.833199 21,500 177 356 -2176
2021-06-21 20:39:23 GMT -32.291424 -70.834129 21,875 177 355 -2176
2021-06-21 20:39:12 GMT -32.273071 -70.835121 22,275 177 354 -2176
2021-06-21 20:39:02 GMT -32.255718 -70.836029 22,650 177 354 -1856
2021-06-21 20:38:50 GMT -32.238144 -70.836990 22,950 177 355 -1600
2021-06-21 20:38:39 GMT -32.219780 -70.837769 23,250 178 358 -1600
2021-06-21 20:38:30 GMT -32.202698 -70.838272 23,525 178 359 -1600
2021-06-21 20:38:18 GMT -32.185471 -70.838554 23,800 179 360 -1664
2021-06-21 20:38:08 GMT -32.167465 -70.838638 24,100 180 362 -1600
2021-06-21 20:37:57 GMT -32.148323 -70.838669 24,325 179 367 -1152
2021-06-21 20:37:40 GMT -32.121094 -70.839622 24,925 177 362 -2304
2021-06-21 20:37:36 GMT -32.113266 -70.839951 25,000 178 352 -448
2021-06-21 20:37:25 GMT -32.095161 -70.840569 25,000 178 351 64
2021-06-21 20:37:15 GMT -32.078888 -70.841110 25,000 178 352 0
2021-06-21 20:37:03 GMT -32.061035 -70.841713 25,000 178 352 -64
2021-06-21 20:36:54 GMT -32.043953 -70.842369 25,025 178 352 0
2021-06-21 20:36:42 GMT -32.025379 -70.843147 25,025 178 352 64
2021-06-21 20:36:31 GMT -32.008156 -70.843765 25,000 178 353 0
2021-06-21 20:36:20 GMT -31.989487 -70.844460 25,000 178 353 0
2021-06-21 20:36:11 GMT -31.974405 -70.845001 25,000 178 353 0
2021-06-21 20:35:59 GMT -31.956345 -70.845558 25,000 178 354 0
2021-06-21 20:35:49 GMT -31.938791 -70.846069 25,000 178 354 0
2021-06-21 20:35:37 GMT -31.918961 -70.846626 25,000 178 354 0
2021-06-21 20:35:26 GMT -31.902575 -70.847015 25,000 178 353 0
2021-06-21 20:35:18 GMT -31.886307 -70.847481 25,000 178 353 0
2021-06-21 20:35:07 GMT -31.869690 -70.847977 25,000 178 353 64
2021-06-21 20:34:55 GMT -31.851974 -70.848579 25,000 178 353 64
2021-06-21 20:34:43 GMT -31.832428 -70.849289 24,975 178 353 0
2021-06-21 20:34:34 GMT -31.815994 -70.850006 24,975 177 353 0
2021-06-21 20:34:23 GMT -31.799423 -70.850723 24,975 177 353 0
2021-06-21 20:34:12 GMT -31.781446 -70.851562 24,975 177 353 0

Making use of Plane Finder data

You are free to use the raw flight data, aircraft information and images provided in this report for your own purposes provided the data is correctly attributed to Plane Finder. We ask that you please credit Plane Finder and link to planefinder.net in close proximity to the content.

Optionally one of the following logos (no smaller then 150x24px) can be used and must link to planefinder.net

Embedding the Plane Finder map

You are welcome to embed the Plane Finder playback map on your website to offer visitors a more interactive experience. We suggest using the following HTML code:

<iframe src="//planefinder.net/data/report/JA87-CC-AWJ-7700-squawk-2021-06-21/map" width="800" height="600" seamless="seamless"></iframe>

Where our data comes from

Plane Finder has a global network of data feeds and antenna radars that receive data broadcast directly from aircraft. The primary technologies used are ADS-B and MLAT. We also show feeds from the FAA and a FLARM glider feed.

Click here to find out more about the Plane Finder network.

How we collect our data